createdAt,value
2022-10-07T00:03:26.380Z,18.40
2022-10-07T00:07:28.505Z,18.50
2022-10-07T00:11:30.476Z,18.60
2022-10-07T00:15:32.393Z,18.90
2022-10-07T00:19:35.156Z,18.50
2022-10-07T00:23:37.003Z,18.40
2022-10-07T00:27:42.676Z,18.40
2022-10-07T00:31:44.618Z,18.30
2022-10-07T00:35:46.256Z,18.10
2022-10-07T00:39:48.004Z,18.00
2022-10-07T00:43:49.791Z,17.80
2022-10-07T00:47:51.682Z,17.70
2022-10-07T00:51:53.541Z,17.50
2022-10-07T00:56:02.001Z,17.30
2022-10-07T01:00:06.963Z,17.50
2022-10-07T01:04:10.240Z,17.70
2022-10-07T01:08:19.999Z,17.90
2022-10-07T01:12:48.010Z,17.60
2022-10-07T01:16:59.070Z,17.10
2022-10-07T01:21:10.822Z,17.80
2022-10-07T01:25:43.344Z,17.60
2022-10-07T01:29:56.665Z,17.70
2022-10-07T01:33:59.208Z,17.60
2022-10-07T01:38:08.436Z,17.60
2022-10-07T01:42:14.269Z,17.60
2022-10-07T01:46:28.420Z,17.60
2022-10-07T01:50:31.663Z,17.50
2022-10-07T01:54:52.486Z,17.70
2022-10-07T01:59:24.301Z,17.60
2022-10-07T02:03:38.041Z,17.70
2022-10-07T02:07:49.158Z,17.70
2022-10-07T02:12:03.533Z,17.70
2022-10-07T02:16:23.675Z,17.90
2022-10-07T02:20:28.780Z,18.10
2022-10-07T02:24:38.714Z,17.90
2022-10-07T02:28:43.355Z,18.00
2022-10-07T02:32:50.808Z,18.10
2022-10-07T02:37:02.870Z,18.00
2022-10-07T02:41:33.354Z,17.60
2022-10-07T02:45:51.261Z,17.90
2022-10-07T02:49:55.310Z,18.10
2022-10-07T02:53:57.761Z,18.30
2022-10-07T02:58:03.852Z,17.90
2022-10-07T03:02:09.906Z,18.10
2022-10-07T03:06:20.761Z,18.30
2022-10-07T03:10:22.862Z,18.10
2022-10-07T03:14:28.060Z,18.30
2022-10-07T03:18:29.849Z,18.30
2022-10-07T03:22:31.685Z,18.40
2022-10-07T03:26:33.992Z,18.50
2022-10-07T03:30:35.660Z,18.30
2022-10-07T03:34:37.569Z,18.30
2022-10-07T03:38:39.470Z,18.50
2022-10-07T03:42:43.418Z,18.40
2022-10-07T03:46:50.768Z,18.40
2022-10-07T03:50:56.565Z,18.40
2022-10-07T03:55:03.828Z,18.40
2022-10-07T03:59:05.754Z,18.50
2022-10-07T04:03:08.506Z,18.80
2022-10-07T04:07:10.262Z,18.30
2022-10-07T04:11:12.032Z,18.40
2022-10-07T04:15:15.419Z,18.20
2022-10-07T04:19:19.742Z,18.30
2022-10-07T04:23:26.741Z,18.50
2022-10-07T04:27:50.633Z,18.70
2022-10-07T04:31:50.866Z,18.50
2022-10-07T04:35:52.588Z,18.40
2022-10-07T04:40:00.749Z,18.40
2022-10-07T04:44:02.858Z,18.40
2022-10-07T04:48:08.224Z,18.40
2022-10-07T04:52:10.579Z,18.50
2022-10-07T04:56:12.404Z,18.60
2022-10-07T05:00:14.165Z,18.80
2022-10-07T05:04:18.055Z,18.60
2022-10-07T05:08:22.283Z,18.40
2022-10-07T05:12:25.873Z,18.30
2022-10-07T05:16:29.729Z,18.40
2022-10-07T05:20:31.461Z,18.30
2022-10-07T05:24:34.805Z,18.60
2022-10-07T05:28:38.253Z,18.40
2022-10-07T05:32:40.030Z,18.40
2022-10-07T05:36:42.989Z,18.30
2022-10-07T05:40:44.846Z,18.30
2022-10-07T05:44:46.779Z,18.40
2022-10-07T05:48:51.846Z,18.40
2022-10-07T05:52:53.548Z,18.20
2022-10-07T05:56:55.240Z,18.20
2022-10-07T06:01:02.399Z,18.10
2022-10-07T06:05:07.653Z,18.20
2022-10-07T06:09:28.869Z,18.20
2022-10-07T06:13:30.838Z,17.90
2022-10-07T06:17:32.559Z,17.40
2022-10-07T06:21:34.264Z,17.50
2022-10-07T06:25:35.926Z,17.80
2022-10-07T06:29:47.180Z,18.20
2022-10-07T06:33:49.545Z,18.10
2022-10-07T06:37:51.234Z,18.20
2022-10-07T06:41:54.628Z,18.40
2022-10-07T06:46:02.058Z,18.60
2022-10-07T06:50:04.279Z,18.50
2022-10-07T06:54:06.012Z,18.50
2022-10-07T06:58:11.407Z,18.50
2022-10-07T07:02:13.598Z,18.40
2022-10-07T07:06:15.299Z,18.30
2022-10-07T07:10:17.429Z,18.20
2022-10-07T07:14:19.400Z,18.40
2022-10-07T07:18:21.064Z,18.40
2022-10-07T07:22:22.737Z,18.60
2022-10-07T07:26:24.747Z,19.00
2022-10-07T07:30:31.320Z,18.60
2022-10-07T07:34:34.064Z,18.80
2022-10-07T07:38:35.915Z,18.80
2022-10-07T07:42:37.631Z,18.40
2022-10-07T07:46:43.102Z,18.90
2022-10-07T07:50:44.925Z,18.70
2022-10-07T07:54:48.052Z,18.00
2022-10-07T07:58:49.772Z,17.90
2022-10-07T08:02:53.175Z,18.40
2022-10-07T08:06:55.563Z,18.30
2022-10-07T08:10:58.144Z,18.70
2022-10-07T08:15:00.166Z,19.00
2022-10-07T08:19:02.073Z,19.10
2022-10-07T08:23:06.852Z,19.20
2022-10-07T08:27:08.537Z,19.70
2022-10-07T08:31:19.040Z,19.50
2022-10-07T08:35:21.266Z,19.60
2022-10-07T08:39:25.940Z,19.60
2022-10-07T08:43:27.710Z,19.70
2022-10-07T08:47:54.238Z,19.80
2022-10-07T08:52:05.789Z,19.70
2022-10-07T08:56:15.364Z,19.40
2022-10-07T09:00:21.298Z,19.20
2022-10-07T09:04:23.598Z,18.90
2022-10-07T09:08:34.268Z,19.00
2022-10-07T09:13:34.133Z,19.40
2022-10-07T09:17:40.671Z,19.30
2022-10-07T09:21:51.209Z,19.50
2022-10-07T09:25:52.954Z,19.70
2022-10-07T09:29:54.735Z,19.80
2022-10-07T09:33:56.551Z,19.80
2022-10-07T09:37:59.783Z,20.10
2022-10-07T09:42:03.843Z,19.70
2022-10-07T09:46:05.681Z,19.90
2022-10-07T09:50:38.265Z,20.20
2022-10-07T09:54:40.716Z,20.30
2022-10-07T09:58:46.072Z,20.30
2022-10-07T10:02:51.662Z,20.00
2022-10-07T10:07:06.415Z,19.80
2022-10-07T10:11:28.347Z,20.00
2022-10-07T10:15:43.804Z,19.80
2022-10-07T10:19:45.574Z,19.60
2022-10-07T10:23:52.641Z,19.60
2022-10-07T10:28:06.302Z,19.70
2022-10-07T10:32:41.496Z,20.10
2022-10-07T10:36:51.025Z,20.30
2022-10-07T10:41:31.161Z,20.00
2022-10-07T10:46:06.022Z,19.70
2022-10-07T10:50:39.033Z,19.90
2022-10-07T10:54:49.869Z,20.20
2022-10-07T10:59:23.679Z,20.40
2022-10-07T11:03:37.526Z,20.30
2022-10-07T11:07:49.244Z,20.40
2022-10-07T11:11:51.671Z,20.40
2022-10-07T11:16:08.962Z,20.70
2022-10-07T11:20:17.664Z,20.70
2022-10-07T11:24:36.331Z,21.10
2022-10-07T11:28:42.017Z,20.80
2022-10-07T11:32:50.000Z,21.00
2022-10-07T11:36:55.829Z,21.30
2022-10-07T11:41:02.961Z,21.00
2022-10-07T11:45:11.792Z,21.40
2022-10-07T11:49:29.875Z,20.50
2022-10-07T11:53:36.465Z,20.40
2022-10-07T11:57:43.955Z,20.50
2022-10-07T12:01:52.567Z,20.30
2022-10-07T12:05:57.966Z,20.00
2022-10-07T12:10:30.354Z,20.40
2022-10-07T12:14:43.253Z,20.20
2022-10-07T12:19:07.948Z,21.20
2022-10-07T12:23:19.038Z,21.30
2022-10-07T12:27:28.527Z,20.60
2022-10-07T12:31:33.218Z,20.70
2022-10-07T12:35:43.396Z,21.30
2022-10-07T12:39:47.497Z,21.60
2022-10-07T12:44:23.005Z,20.70
2022-10-07T12:48:27.993Z,21.50
2022-10-07T12:52:33.357Z,21.30
2022-10-07T12:56:35.187Z,20.70
2022-10-07T13:00:38.663Z,20.90
2022-10-07T13:05:08.350Z,21.10
2022-10-07T13:09:32.152Z,20.70
2022-10-07T13:14:00.372Z,20.90
2022-10-07T13:18:15.341Z,21.20
2022-10-07T13:22:19.441Z,21.00
2022-10-07T13:26:25.103Z,21.30
2022-10-07T13:30:37.191Z,21.30
2022-10-07T13:34:39.114Z,21.30
2022-10-07T13:38:47.236Z,21.00
2022-10-07T13:42:56.691Z,21.20
2022-10-07T13:47:14.923Z,21.00
2022-10-07T13:51:24.854Z,21.10
2022-10-07T13:55:30.314Z,21.10
2022-10-07T13:59:40.074Z,21.10
2022-10-07T14:04:21.498Z,20.30
2022-10-07T14:08:27.830Z,20.70
2022-10-07T14:12:44.766Z,20.90
2022-10-07T14:16:51.144Z,20.90
2022-10-07T14:20:55.846Z,21.40
2022-10-07T14:25:01.697Z,21.10
2022-10-07T14:29:27.264Z,21.30
2022-10-07T14:33:58.652Z,21.10
2022-10-07T14:38:19.775Z,20.60
2022-10-07T14:42:24.988Z,20.80
2022-10-07T14:46:28.992Z,19.90
2022-10-07T14:50:30.764Z,19.80
2022-10-07T14:54:34.542Z,20.00
2022-10-07T14:58:36.284Z,20.10
2022-10-07T15:02:37.974Z,20.10
2022-10-07T15:06:40.462Z,20.50
2022-10-07T15:10:42.647Z,20.20
2022-10-07T15:14:44.496Z,20.20
2022-10-07T15:18:51.909Z,20.20
2022-10-07T15:22:54.428Z,20.40
2022-10-07T15:26:57.294Z,20.50
2022-10-07T15:31:08.172Z,20.30
2022-10-07T15:35:10.244Z,20.60
2022-10-07T15:39:12.136Z,20.80
2022-10-07T15:43:13.866Z,20.50
2022-10-07T15:47:17.365Z,20.60
2022-10-07T15:51:19.036Z,20.40
2022-10-07T15:55:20.787Z,20.50
2022-10-07T15:59:22.531Z,20.60
2022-10-07T16:03:24.520Z,20.90
2022-10-07T16:07:26.438Z,20.70
2022-10-07T16:11:30.336Z,20.60
2022-10-07T16:15:32.160Z,20.40
2022-10-07T16:19:34.041Z,20.20
2022-10-07T16:23:37.979Z,20.40
2022-10-07T16:27:58.209Z,20.00
2022-10-07T16:31:59.993Z,19.80
2022-10-07T16:36:13.489Z,20.10
2022-10-07T16:40:17.724Z,20.30
2022-10-07T16:44:20.440Z,20.10
2022-10-07T16:48:22.306Z,20.30
2022-10-07T16:52:25.663Z,20.60
2022-10-07T16:56:34.831Z,20.20
2022-10-07T17:00:36.898Z,19.90
2022-10-07T17:04:38.640Z,20.30
2022-10-07T17:08:46.189Z,20.10
2022-10-07T17:12:50.250Z,19.90
2022-10-07T17:16:56.557Z,19.50
2022-10-07T17:20:59.384Z,19.70
2022-10-07T17:25:03.977Z,19.60
2022-10-07T17:29:08.281Z,20.10
2022-10-07T17:33:15.307Z,20.10
2022-10-07T17:37:16.990Z,19.50
2022-10-07T17:41:20.225Z,19.70
2022-10-07T17:45:22.553Z,19.30
2022-10-07T17:49:24.438Z,19.40
2022-10-07T17:53:40.462Z,19.60
2022-10-07T17:57:42.245Z,19.60
2022-10-07T18:01:45.123Z,18.70
2022-10-07T18:05:54.800Z,18.40
2022-10-07T18:09:56.517Z,19.10
2022-10-07T18:14:24.284Z,19.60
2022-10-07T18:18:26.824Z,19.80
2022-10-07T18:22:28.636Z,19.70
2022-10-07T18:26:30.407Z,19.40
2022-10-07T18:30:32.205Z,19.80
2022-10-07T18:34:33.992Z,19.40
2022-10-07T18:38:41.954Z,19.80
2022-10-07T18:42:48.715Z,19.80
2022-10-07T18:46:50.792Z,20.00
2022-10-07T18:50:52.877Z,19.60
2022-10-07T18:54:54.613Z,19.80
2022-10-07T18:59:02.432Z,19.50
2022-10-07T19:03:11.990Z,19.60
2022-10-07T19:07:13.705Z,19.60
2022-10-07T19:11:17.565Z,19.50
2022-10-07T19:15:21.403Z,19.70
2022-10-07T19:19:24.708Z,19.40
2022-10-07T19:23:27.937Z,19.30
2022-10-07T19:27:29.675Z,19.20
2022-10-07T19:31:41.891Z,19.00
2022-10-07T19:35:43.712Z,19.00
2022-10-07T19:39:45.782Z,19.00
2022-10-07T19:43:49.424Z,18.90
2022-10-07T19:47:51.385Z,18.90
2022-10-07T19:51:53.422Z,18.60
2022-10-07T19:55:55.280Z,18.60
2022-10-07T19:59:57.046Z,18.50
2022-10-07T20:04:13.863Z,18.40
2022-10-07T20:08:17.966Z,18.40
2022-10-07T20:12:19.888Z,18.30
2022-10-07T20:16:24.966Z,18.20
2022-10-07T20:20:26.921Z,18.30
2022-10-07T20:24:28.617Z,18.10
2022-10-07T20:28:30.467Z,18.10
2022-10-07T20:32:34.132Z,18.10
2022-10-07T20:36:37.891Z,18.10
2022-10-07T20:41:01.931Z,18.00
2022-10-07T20:45:04.498Z,18.00
2022-10-07T20:49:15.556Z,17.80
2022-10-07T20:53:17.420Z,17.60
2022-10-07T20:57:29.382Z,17.30
2022-10-07T21:01:31.749Z,17.10
2022-10-07T21:05:33.696Z,17.40
2022-10-07T21:09:42.294Z,17.30
2022-10-07T21:13:44.075Z,17.30
2022-10-07T21:17:55.499Z,16.70
2022-10-07T21:21:57.772Z,16.20
2022-10-07T21:26:04.605Z,16.40
2022-10-07T21:30:07.352Z,16.90
2022-10-07T21:34:10.209Z,16.60
2022-10-07T21:38:19.216Z,16.80
2022-10-07T21:42:21.237Z,16.70
2022-10-07T21:46:25.705Z,17.10
2022-10-07T21:50:28.675Z,17.10
2022-10-07T21:54:30.789Z,17.30
2022-10-07T21:58:33.818Z,17.50
2022-10-07T22:02:35.804Z,16.80
2022-10-07T22:07:00.660Z,17.00
2022-10-07T22:11:11.268Z,17.30
2022-10-07T22:15:17.347Z,17.10
2022-10-07T22:19:19.309Z,16.90
2022-10-07T22:23:21.254Z,17.20
2022-10-07T22:27:24.914Z,17.10
2022-10-07T22:31:27.085Z,17.10
2022-10-07T22:35:32.477Z,17.00
2022-10-07T22:39:45.140Z,17.20
2022-10-07T22:43:55.743Z,17.20
2022-10-07T22:48:06.470Z,17.10
2022-10-07T22:52:13.889Z,16.80
2022-10-07T22:56:17.660Z,16.50
2022-10-07T23:00:21.044Z,16.80
2022-10-07T23:04:22.756Z,16.10
2022-10-07T23:08:34.744Z,15.50
2022-10-07T23:12:36.503Z,15.90
2022-10-07T23:16:38.329Z,16.10
2022-10-07T23:20:51.846Z,16.40
2022-10-07T23:24:53.563Z,16.40
2022-10-07T23:29:03.519Z,16.90
2022-10-07T23:33:05.206Z,16.80
2022-10-07T23:37:06.913Z,16.90
2022-10-07T23:41:08.861Z,16.60
2022-10-07T23:45:10.856Z,16.80
2022-10-07T23:49:13.374Z,16.80
2022-10-07T23:53:16.078Z,16.80
2022-10-07T23:57:17.833Z,16.60
